sensor_id;sensor_type;location;lat;lon;timestamp;P1;durP1;ratioP1;P2;durP2;ratioP2
52940;SDS011;62001;53.366;6.636;2023-08-08T00:01:24;5.82;;;2.45;;
52940;SDS011;62001;53.366;6.636;2023-08-08T00:03:50;9.25;;;2.78;;
52940;SDS011;62001;53.366;6.636;2023-08-08T00:06:15;8.95;;;2.53;;
52940;SDS011;62001;53.366;6.636;2023-08-08T00:08:41;11.27;;;3.22;;
52940;SDS011;62001;53.366;6.636;2023-08-08T00:11:07;7.03;;;3.10;;
52940;SDS011;62001;53.366;6.636;2023-08-08T00:13:33;8.45;;;2.75;;
52940;SDS011;62001;53.366;6.636;2023-08-08T00:15:59;11.38;;;4.05;;
52940;SDS011;62001;53.366;6.636;2023-08-08T00:18:25;7.28;;;2.53;;
52940;SDS011;62001;53.366;6.636;2023-08-08T00:20:51;13.13;;;2.90;;
52940;SDS011;62001;53.366;6.636;2023-08-08T00:23:17;8.43;;;3.00;;
52940;SDS011;62001;53.366;6.636;2023-08-08T00:25:42;6.70;;;2.60;;
52940;SDS011;62001;53.366;6.636;2023-08-08T00:28:08;6.72;;;2.92;;
52940;SDS011;62001;53.366;6.636;2023-08-08T00:30:34;10.25;;;2.80;;
52940;SDS011;62001;53.366;6.636;2023-08-08T00:33:00;8.32;;;3.10;;
52940;SDS011;62001;53.366;6.636;2023-08-08T00:35:26;9.90;;;3.53;;
52940;SDS011;62001;53.366;6.636;2023-08-08T00:37:51;6.22;;;3.05;;
52940;SDS011;62001;53.366;6.636;2023-08-08T00:40:17;9.63;;;3.40;;
52940;SDS011;62001;53.366;6.636;2023-08-08T00:42:43;6.53;;;3.15;;
52940;SDS011;62001;53.366;6.636;2023-08-08T00:45:09;7.18;;;2.95;;
52940;SDS011;62001;53.366;6.636;2023-08-08T00:47:35;7.28;;;3.30;;
52940;SDS011;62001;53.366;6.636;2023-08-08T00:50:02;7.72;;;3.20;;
52940;SDS011;62001;53.366;6.636;2023-08-08T00:52:29;7.68;;;3.30;;
52940;SDS011;62001;53.366;6.636;2023-08-08T00:54:55;10.20;;;3.80;;
52940;SDS011;62001;53.366;6.636;2023-08-08T00:57:21;10.95;;;3.70;;
52940;SDS011;62001;53.366;6.636;2023-08-08T00:59:47;10.07;;;3.97;;
52940;SDS011;62001;53.366;6.636;2023-08-08T01:02:13;10.05;;;3.67;;
52940;SDS011;62001;53.366;6.636;2023-08-08T01:04:39;8.75;;;3.55;;
52940;SDS011;62001;53.366;6.636;2023-08-08T01:09:53;7.57;;;3.17;;
52940;SDS011;62001;53.366;6.636;2023-08-08T01:12:26;8.52;;;3.80;;
52940;SDS011;62001;53.366;6.636;2023-08-08T01:14:53;8.30;;;3.40;;
52940;SDS011;62001;53.366;6.636;2023-08-08T01:17:20;7.57;;;3.50;;
52940;SDS011;62001;53.366;6.636;2023-08-08T01:19:47;8.15;;;3.47;;
52940;SDS011;62001;53.366;6.636;2023-08-08T01:22:27;9.43;;;4.07;;
52940;SDS011;62001;53.366;6.636;2023-08-08T01:25:00;11.05;;;3.80;;
52940;SDS011;62001;53.366;6.636;2023-08-08T01:27:27;10.68;;;3.95;;
52940;SDS011;62001;53.366;6.636;2023-08-08T01:29:54;11.18;;;4.28;;
52940;SDS011;62001;53.366;6.636;2023-08-08T01:32:20;8.40;;;3.97;;
52940;SDS011;62001;53.366;6.636;2023-08-08T01:34:46;8.20;;;3.78;;
52940;SDS011;62001;53.366;6.636;2023-08-08T01:37:29;8.77;;;3.85;;
52940;SDS011;62001;53.366;6.636;2023-08-08T01:40:00;7.70;;;4.00;;
52940;SDS011;62001;53.366;6.636;2023-08-08T01:42:27;9.65;;;3.92;;
52940;SDS011;62001;53.366;6.636;2023-08-08T01:44:54;11.30;;;4.13;;
52940;SDS011;62001;53.366;6.636;2023-08-08T01:47:21;5.25;;;3.83;;
52940;SDS011;62001;53.366;6.636;2023-08-08T01:49:47;6.50;;;3.67;;
52940;SDS011;62001;53.366;6.636;2023-08-08T01:52:13;7.50;;;3.72;;
52940;SDS011;62001;53.366;6.636;2023-08-08T01:54:39;7.93;;;4.40;;
52940;SDS011;62001;53.366;6.636;2023-08-08T01:57:07;9.57;;;4.05;;
52940;SDS011;62001;53.366;6.636;2023-08-08T01:59:33;7.57;;;3.75;;
52940;SDS011;62001;53.366;6.636;2023-08-08T02:01:58;9.68;;;4.05;;
52940;SDS011;62001;53.366;6.636;2023-08-08T02:04:25;9.63;;;3.60;;
52940;SDS011;62001;53.366;6.636;2023-08-08T02:06:50;9.38;;;3.55;;
52940;SDS011;62001;53.366;6.636;2023-08-08T02:09:16;9.45;;;3.88;;
52940;SDS011;62001;53.366;6.636;2023-08-08T02:11:42;9.63;;;3.35;;
52940;SDS011;62001;53.366;6.636;2023-08-08T02:14:08;8.27;;;3.35;;
52940;SDS011;62001;53.366;6.636;2023-08-08T02:16:34;10.07;;;3.33;;
52940;SDS011;62001;53.366;6.636;2023-08-08T02:19:00;6.38;;;3.08;;
52940;SDS011;62001;53.366;6.636;2023-08-08T02:21:26;7.50;;;3.35;;
52940;SDS011;62001;53.366;6.636;2023-08-08T02:23:52;8.10;;;3.05;;
52940;SDS011;62001;53.366;6.636;2023-08-08T02:26:18;8.00;;;3.10;;
52940;SDS011;62001;53.366;6.636;2023-08-08T02:28:43;8.18;;;3.00;;
52940;SDS011;62001;53.366;6.636;2023-08-08T02:31:09;7.32;;;2.78;;
52940;SDS011;62001;53.366;6.636;2023-08-08T02:33:35;8.93;;;3.10;;
52940;SDS011;62001;53.366;6.636;2023-08-08T02:36:01;6.20;;;2.75;;
52940;SDS011;62001;53.366;6.636;2023-08-08T02:38:27;6.18;;;2.38;;
52940;SDS011;62001;53.366;6.636;2023-08-08T02:40:53;7.57;;;2.55;;
52940;SDS011;62001;53.366;6.636;2023-08-08T02:43:19;6.57;;;2.30;;
52940;SDS011;62001;53.366;6.636;2023-08-08T02:45:44;8.98;;;2.38;;
52940;SDS011;62001;53.366;6.636;2023-08-08T02:48:10;8.20;;;2.35;;
52940;SDS011;62001;53.366;6.636;2023-08-08T02:50:36;7.20;;;2.22;;
52940;SDS011;62001;53.366;6.636;2023-08-08T02:53:02;6.53;;;2.47;;
52940;SDS011;62001;53.366;6.636;2023-08-08T02:55:28;7.85;;;2.47;;
52940;SDS011;62001;53.366;6.636;2023-08-08T02:57:54;5.28;;;2.50;;
52940;SDS011;62001;53.366;6.636;2023-08-08T03:00:20;7.32;;;2.40;;
52940;SDS011;62001;53.366;6.636;2023-08-08T03:02:46;10.07;;;2.65;;
52940;SDS011;62001;53.366;6.636;2023-08-08T03:05:12;5.82;;;2.47;;
52940;SDS011;62001;53.366;6.636;2023-08-08T03:07:37;5.90;;;2.45;;
52940;SDS011;62001;53.366;6.636;2023-08-08T03:10:04;6.65;;;2.50;;
52940;SDS011;62001;53.366;6.636;2023-08-08T03:12:31;9.00;;;3.05;;
52940;SDS011;62001;53.366;6.636;2023-08-08T03:14:57;6.30;;;2.47;;
52940;SDS011;62001;53.366;6.636;2023-08-08T03:17:23;9.07;;;2.78;;
52940;SDS011;62001;53.366;6.636;2023-08-08T03:19:48;6.95;;;2.85;;
52940;SDS011;62001;53.366;6.636;2023-08-08T03:22:14;9.85;;;2.95;;
52940;SDS011;62001;53.366;6.636;2023-08-08T03:24:40;8.23;;;2.63;;
52940;SDS011;62001;53.366;6.636;2023-08-08T03:27:06;8.70;;;2.70;;
52940;SDS011;62001;53.366;6.636;2023-08-08T03:29:32;7.90;;;2.70;;
52940;SDS011;62001;53.366;6.636;2023-08-08T03:31:58;7.10;;;2.40;;
52940;SDS011;62001;53.366;6.636;2023-08-08T03:34:23;8.23;;;2.65;;
52940;SDS011;62001;53.366;6.636;2023-08-08T03:36:49;4.70;;;2.25;;
52940;SDS011;62001;53.366;6.636;2023-08-08T03:39:15;6.45;;;2.40;;
52940;SDS011;62001;53.366;6.636;2023-08-08T03:41:41;5.35;;;2.22;;
52940;SDS011;62001;53.366;6.636;2023-08-08T03:44:07;6.50;;;2.25;;
52940;SDS011;62001;53.366;6.636;2023-08-08T03:46:33;7.25;;;2.22;;
52940;SDS011;62001;53.366;6.636;2023-08-08T03:48:59;7.53;;;2.70;;
52940;SDS011;62001;53.366;6.636;2023-08-08T03:51:25;8.32;;;2.20;;
52940;SDS011;62001;53.366;6.636;2023-08-08T03:53:50;5.68;;;2.47;;
52940;SDS011;62001;53.366;6.636;2023-08-08T03:56:16;4.22;;;2.17;;
52940;SDS011;62001;53.366;6.636;2023-08-08T03:58:42;6.75;;;2.10;;
52940;SDS011;62001;53.366;6.636;2023-08-08T04:01:08;4.32;;;1.90;;
52940;SDS011;62001;53.366;6.636;2023-08-08T04:03:34;6.70;;;2.03;;
52940;SDS011;62001;53.366;6.636;2023-08-08T04:06:00;6.18;;;1.90;;
52940;SDS011;62001;53.366;6.636;2023-08-08T04:08:29;9.07;;;2.22;;
52940;SDS011;62001;53.366;6.636;2023-08-08T04:10:56;5.65;;;2.15;;
52940;SDS011;62001;53.366;6.636;2023-08-08T04:13:23;5.38;;;1.90;;
52940;SDS011;62001;53.366;6.636;2023-08-08T04:15:49;7.43;;;1.95;;
52940;SDS011;62001;53.366;6.636;2023-08-08T04:18:17;4.30;;;1.85;;
52940;SDS011;62001;53.366;6.636;2023-08-08T04:20:44;7.80;;;2.13;;
52940;SDS011;62001;53.366;6.636;2023-08-08T04:23:12;6.55;;;2.30;;
52940;SDS011;62001;53.366;6.636;2023-08-08T04:25:38;5.53;;;2.28;;
52940;SDS011;62001;53.366;6.636;2023-08-08T04:28:04;5.18;;;2.00;;
52940;SDS011;62001;53.366;6.636;2023-08-08T04:30:30;6.47;;;2.10;;
52940;SDS011;62001;53.366;6.636;2023-08-08T04:32:56;5.18;;;2.40;;
52940;SDS011;62001;53.366;6.636;2023-08-08T04:35:21;6.85;;;2.03;;
52940;SDS011;62001;53.366;6.636;2023-08-08T04:37:47;8.25;;;2.47;;
52940;SDS011;62001;53.366;6.636;2023-08-08T04:40:13;7.93;;;2.50;;
52940;SDS011;62001;53.366;6.636;2023-08-08T04:42:39;5.90;;;1.70;;
52940;SDS011;62001;53.366;6.636;2023-08-08T04:45:06;4.80;;;2.33;;
52940;SDS011;62001;53.366;6.636;2023-08-08T04:47:32;9.23;;;2.63;;
52940;SDS011;62001;53.366;6.636;2023-08-08T04:49:58;6.93;;;2.45;;
52940;SDS011;62001;53.366;6.636;2023-08-08T04:52:24;6.82;;;2.42;;
52940;SDS011;62001;53.366;6.636;2023-08-08T04:54:50;5.97;;;2.33;;
52940;SDS011;62001;53.366;6.636;2023-08-08T04:57:16;8.07;;;2.20;;
52940;SDS011;62001;53.366;6.636;2023-08-08T04:59:41;6.75;;;2.40;;
52940;SDS011;62001;53.366;6.636;2023-08-08T05:02:07;4.90;;;2.33;;
52940;SDS011;62001;53.366;6.636;2023-08-08T05:04:33;6.78;;;2.67;;
52940;SDS011;62001;53.366;6.636;2023-08-08T05:06:59;7.80;;;2.35;;
52940;SDS011;62001;53.366;6.636;2023-08-08T05:09:25;6.15;;;2.20;;
52940;SDS011;62001;53.366;6.636;2023-08-08T05:11:53;7.15;;;2.33;;
52940;SDS011;62001;53.366;6.636;2023-08-08T05:14:19;7.78;;;2.25;;
52940;SDS011;62001;53.366;6.636;2023-08-08T05:16:45;6.55;;;2.20;;
52940;SDS011;62001;53.366;6.636;2023-08-08T05:19:11;8.40;;;1.95;;
52940;SDS011;62001;53.366;6.636;2023-08-08T05:21:37;10.35;;;2.35;;
52940;SDS011;62001;53.366;6.636;2023-08-08T05:24:03;8.30;;;2.40;;
52940;SDS011;62001;53.366;6.636;2023-08-08T05:26:29;7.40;;;2.00;;
52940;SDS011;62001;53.366;6.636;2023-08-08T05:28:56;4.00;;;2.00;;
52940;SDS011;62001;53.366;6.636;2023-08-08T05:31:21;7.97;;;2.13;;
52940;SDS011;62001;53.366;6.636;2023-08-08T05:33:50;6.32;;;2.00;;
52940;SDS011;62001;53.366;6.636;2023-08-08T05:36:16;10.25;;;2.05;;
52940;SDS011;62001;53.366;6.636;2023-08-08T05:38:42;9.52;;;2.08;;
52940;SDS011;62001;53.366;6.636;2023-08-08T05:41:08;8.90;;;2.03;;
52940;SDS011;62001;53.366;6.636;2023-08-08T05:43:34;9.02;;;2.03;;
52940;SDS011;62001;53.366;6.636;2023-08-08T05:46:01;6.88;;;2.10;;
52940;SDS011;62001;53.366;6.636;2023-08-08T05:48:27;11.43;;;2.20;;
52940;SDS011;62001;53.366;6.636;2023-08-08T05:50:53;10.05;;;2.13;;
52940;SDS011;62001;53.366;6.636;2023-08-08T05:53:19;5.72;;;1.92;;
52940;SDS011;62001;53.366;6.636;2023-08-08T05:55:45;9.35;;;2.20;;
52940;SDS011;62001;53.366;6.636;2023-08-08T05:58:11;8.43;;;2.20;;
52940;SDS011;62001;53.366;6.636;2023-08-08T06:00:37;6.38;;;1.98;;
52940;SDS011;62001;53.366;6.636;2023-08-08T06:03:03;10.13;;;2.22;;
52940;SDS011;62001;53.366;6.636;2023-08-08T06:05:29;8.07;;;1.90;;
52940;SDS011;62001;53.366;6.636;2023-08-08T06:07:55;6.82;;;1.70;;
52940;SDS011;62001;53.366;6.636;2023-08-08T06:10:21;7.00;;;2.10;;
52940;SDS011;62001;53.366;6.636;2023-08-08T06:12:47;10.23;;;1.85;;
52940;SDS011;62001;53.366;6.636;2023-08-08T06:15:13;6.18;;;1.73;;
52940;SDS011;62001;53.366;6.636;2023-08-08T06:17:39;10.32;;;1.88;;
52940;SDS011;62001;53.366;6.636;2023-08-08T06:20:05;10.68;;;2.05;;
52940;SDS011;62001;53.366;6.636;2023-08-08T06:22:35;8.88;;;2.13;;
52940;SDS011;62001;53.366;6.636;2023-08-08T06:25:01;7.57;;;2.00;;
52940;SDS011;62001;53.366;6.636;2023-08-08T06:27:28;7.25;;;2.00;;
52940;SDS011;62001;53.366;6.636;2023-08-08T06:29:54;9.15;;;1.80;;
52940;SDS011;62001;53.366;6.636;2023-08-08T06:32:21;7.70;;;1.88;;
52940;SDS011;62001;53.366;6.636;2023-08-08T06:34:47;8.52;;;1.92;;
52940;SDS011;62001;53.366;6.636;2023-08-08T06:37:12;7.90;;;1.95;;
52940;SDS011;62001;53.366;6.636;2023-08-08T06:39:38;8.48;;;1.90;;
52940;SDS011;62001;53.366;6.636;2023-08-08T06:42:05;6.43;;;2.00;;
52940;SDS011;62001;53.366;6.636;2023-08-08T06:44:40;8.23;;;1.92;;
52940;SDS011;62001;53.366;6.636;2023-08-08T06:47:10;11.43;;;2.05;;
52940;SDS011;62001;53.366;6.636;2023-08-08T06:49:36;6.68;;;1.85;;
52940;SDS011;62001;53.366;6.636;2023-08-08T06:52:03;7.72;;;1.88;;
52940;SDS011;62001;53.366;6.636;2023-08-08T06:54:30;6.75;;;1.50;;
52940;SDS011;62001;53.366;6.636;2023-08-08T06:56:56;8.13;;;2.05;;
52940;SDS011;62001;53.366;6.636;2023-08-08T06:59:23;7.07;;;1.80;;
52940;SDS011;62001;53.366;6.636;2023-08-08T07:01:50;7.03;;;1.85;;
52940;SDS011;62001;53.366;6.636;2023-08-08T07:04:16;8.20;;;3.30;;
52940;SDS011;62001;53.366;6.636;2023-08-08T07:06:43;8.00;;;2.30;;
52940;SDS011;62001;53.366;6.636;2023-08-08T07:09:12;7.45;;;1.83;;
52940;SDS011;62001;53.366;6.636;2023-08-08T07:11:39;10.45;;;1.75;;
52940;SDS011;62001;53.366;6.636;2023-08-08T07:14:05;5.72;;;1.65;;
52940;SDS011;62001;53.366;6.636;2023-08-08T07:16:32;7.43;;;1.23;;
52940;SDS011;62001;53.366;6.636;2023-08-08T07:18:57;8.70;;;1.42;;
52940;SDS011;62001;53.366;6.636;2023-08-08T07:21:23;10.10;;;1.67;;
52940;SDS011;62001;53.366;6.636;2023-08-08T07:23:49;6.80;;;1.65;;
52940;SDS011;62001;53.366;6.636;2023-08-08T07:26:15;9.50;;;2.20;;
52940;SDS011;62001;53.366;6.636;2023-08-08T07:28:41;6.38;;;1.58;;
52940;SDS011;62001;53.366;6.636;2023-08-08T07:31:07;6.90;;;1.70;;
52940;SDS011;62001;53.366;6.636;2023-08-08T07:33:33;8.02;;;1.90;;
52940;SDS011;62001;53.366;6.636;2023-08-08T07:35:59;7.18;;;1.90;;
52940;SDS011;62001;53.366;6.636;2023-08-08T07:38:25;9.27;;;1.73;;
52940;SDS011;62001;53.366;6.636;2023-08-08T07:40:51;7.25;;;1.85;;
52940;SDS011;62001;53.366;6.636;2023-08-08T07:43:17;7.18;;;2.10;;
52940;SDS011;62001;53.366;6.636;2023-08-08T07:45:42;6.80;;;1.50;;
52940;SDS011;62001;53.366;6.636;2023-08-08T07:48:08;5.68;;;1.92;;
52940;SDS011;62001;53.366;6.636;2023-08-08T07:50:34;6.75;;;1.50;;
52940;SDS011;62001;53.366;6.636;2023-08-08T07:53:00;8.52;;;1.50;;
52940;SDS011;62001;53.366;6.636;2023-08-08T07:55:26;7.45;;;1.60;;
52940;SDS011;62001;53.366;6.636;2023-08-08T07:57:52;8.27;;;1.60;;
52940;SDS011;62001;53.366;6.636;2023-08-08T08:00:18;7.65;;;1.70;;
52940;SDS011;62001;53.366;6.636;2023-08-08T08:02:45;7.43;;;1.83;;
52940;SDS011;62001;53.366;6.636;2023-08-08T08:05:12;8.45;;;1.80;;
52940;SDS011;62001;53.366;6.636;2023-08-08T08:07:39;8.93;;;1.75;;
52940;SDS011;62001;53.366;6.636;2023-08-08T08:10:06;5.93;;;2.00;;
52940;SDS011;62001;53.366;6.636;2023-08-08T08:12:33;6.03;;;1.45;;
52940;SDS011;62001;53.366;6.636;2023-08-08T08:15:00;6.70;;;1.45;;
52940;SDS011;62001;53.366;6.636;2023-08-08T08:17:26;7.57;;;1.70;;
52940;SDS011;62001;53.366;6.636;2023-08-08T08:19:53;10.23;;;1.70;;
52940;SDS011;62001;53.366;6.636;2023-08-08T08:22:20;8.13;;;1.55;;
52940;SDS011;62001;53.366;6.636;2023-08-08T08:24:46;5.40;;;1.55;;
52940;SDS011;62001;53.366;6.636;2023-08-08T08:27:12;10.75;;;1.92;;
52940;SDS011;62001;53.366;6.636;2023-08-08T08:29:38;5.95;;;1.40;;
52940;SDS011;62001;53.366;6.636;2023-08-08T08:32:05;5.53;;;1.40;;
52940;SDS011;62001;53.366;6.636;2023-08-08T08:34:31;8.70;;;1.83;;
52940;SDS011;62001;53.366;6.636;2023-08-08T08:36:57;8.00;;;1.63;;
52940;SDS011;62001;53.366;6.636;2023-08-08T08:39:23;6.93;;;1.50;;
52940;SDS011;62001;53.366;6.636;2023-08-08T08:41:49;11.20;;;2.30;;
52940;SDS011;62001;53.366;6.636;2023-08-08T08:44:20;8.65;;;1.80;;
52940;SDS011;62001;53.366;6.636;2023-08-08T08:46:47;7.78;;;1.58;;
52940;SDS011;62001;53.366;6.636;2023-08-08T08:49:15;9.00;;;1.63;;
52940;SDS011;62001;53.366;6.636;2023-08-08T08:51:44;7.95;;;1.70;;
52940;SDS011;62001;53.366;6.636;2023-08-08T08:54:10;9.63;;;1.48;;
52940;SDS011;62001;53.366;6.636;2023-08-08T08:56:36;7.75;;;1.67;;
52940;SDS011;62001;53.366;6.636;2023-08-08T08:59:02;6.78;;;1.40;;
52940;SDS011;62001;53.366;6.636;2023-08-08T09:01:28;5.60;;;1.40;;
52940;SDS011;62001;53.366;6.636;2023-08-08T09:03:54;6.57;;;1.33;;
52940;SDS011;62001;53.366;6.636;2023-08-08T09:06:21;5.90;;;1.48;;
52940;SDS011;62001;53.366;6.636;2023-08-08T09:08:48;4.57;;;1.50;;
52940;SDS011;62001;53.366;6.636;2023-08-08T09:11:14;5.85;;;1.35;;
52940;SDS011;62001;53.366;6.636;2023-08-08T09:13:40;3.63;;;1.25;;
52940;SDS011;62001;53.366;6.636;2023-08-08T09:16:07;8.90;;;1.52;;
52940;SDS011;62001;53.366;6.636;2023-08-08T09:18:34;4.00;;;1.35;;
52940;SDS011;62001;53.366;6.636;2023-08-08T09:21:03;5.90;;;1.90;;
52940;SDS011;62001;53.366;6.636;2023-08-08T09:23:29;7.10;;;2.05;;
52940;SDS011;62001;53.366;6.636;2023-08-08T09:25:56;8.57;;;2.20;;
52940;SDS011;62001;53.366;6.636;2023-08-08T09:28:22;8.82;;;1.70;;
52940;SDS011;62001;53.366;6.636;2023-08-08T09:30:48;7.10;;;1.85;;
52940;SDS011;62001;53.366;6.636;2023-08-08T09:33:14;9.20;;;1.98;;
52940;SDS011;62001;53.366;6.636;2023-08-08T09:35:40;9.15;;;1.65;;
52940;SDS011;62001;53.366;6.636;2023-08-08T09:38:06;6.43;;;1.60;;
52940;SDS011;62001;53.366;6.636;2023-08-08T09:40:32;8.80;;;1.80;;
52940;SDS011;62001;53.366;6.636;2023-08-08T09:42:59;5.03;;;1.45;;
52940;SDS011;62001;53.366;6.636;2023-08-08T09:45:25;6.68;;;1.75;;
52940;SDS011;62001;53.366;6.636;2023-08-08T09:47:51;7.25;;;1.30;;
52940;SDS011;62001;53.366;6.636;2023-08-08T09:50:20;6.93;;;1.60;;
52940;SDS011;62001;53.366;6.636;2023-08-08T09:52:46;7.88;;;1.75;;
52940;SDS011;62001;53.366;6.636;2023-08-08T09:55:13;13.30;;;1.98;;
52940;SDS011;62001;53.366;6.636;2023-08-08T09:57:40;8.57;;;1.80;;
52940;SDS011;62001;53.366;6.636;2023-08-08T10:00:07;7.68;;;1.73;;
52940;SDS011;62001;53.366;6.636;2023-08-08T10:02:42;9.82;;;1.70;;
52940;SDS011;62001;53.366;6.636;2023-08-08T10:05:10;5.82;;;1.58;;
52940;SDS011;62001;53.366;6.636;2023-08-08T10:07:38;8.35;;;1.63;;
52940;SDS011;62001;53.366;6.636;2023-08-08T10:10:06;6.90;;;1.90;;
52940;SDS011;62001;53.366;6.636;2023-08-08T10:12:35;5.15;;;1.60;;
52940;SDS011;62001;53.366;6.636;2023-08-08T10:15:08;6.93;;;1.80;;
52940;SDS011;62001;53.366;6.636;2023-08-08T10:17:36;9.05;;;1.98;;
52940;SDS011;62001;53.366;6.636;2023-08-08T10:20:03;7.88;;;1.70;;
52940;SDS011;62001;53.366;6.636;2023-08-08T10:22:37;8.93;;;1.42;;
52940;SDS011;62001;53.366;6.636;2023-08-08T10:25:44;10.57;;;1.92;;
52940;SDS011;62001;53.366;6.636;2023-08-08T10:28:09;5.70;;;1.17;;
52940;SDS011;62001;53.366;6.636;2023-08-08T10:30:56;7.20;;;1.60;;
52940;SDS011;62001;53.366;6.636;2023-08-08T10:36:01;4.40;;;1.40;;
52940;SDS011;62001;53.366;6.636;2023-08-08T10:38:44;5.82;;;1.80;;
52940;SDS011;62001;53.366;6.636;2023-08-08T10:41:19;6.93;;;1.65;;
52940;SDS011;62001;53.366;6.636;2023-08-08T10:43:48;6.22;;;1.45;;
52940;SDS011;62001;53.366;6.636;2023-08-08T10:49:08;7.07;;;1.85;;
52940;SDS011;62001;53.366;6.636;2023-08-08T10:51:43;6.18;;;1.48;;
52940;SDS011;62001;53.366;6.636;2023-08-08T10:54:15;7.45;;;1.60;;
52940;SDS011;62001;53.366;6.636;2023-08-08T10:56:48;6.82;;;1.67;;
52940;SDS011;62001;53.366;6.636;2023-08-08T10:59:17;9.32;;;1.70;;
52940;SDS011;62001;53.366;6.636;2023-08-08T11:01:47;7.50;;;1.95;;
52940;SDS011;62001;53.366;6.636;2023-08-08T11:04:15;6.38;;;1.80;;
52940;SDS011;62001;53.366;6.636;2023-08-08T11:06:43;6.78;;;1.73;;
52940;SDS011;62001;53.366;6.636;2023-08-08T11:09:09;8.55;;;1.80;;
52940;SDS011;62001;53.366;6.636;2023-08-08T11:11:36;6.45;;;1.63;;
52940;SDS011;62001;53.366;6.636;2023-08-08T11:14:13;8.75;;;1.80;;
52940;SDS011;62001;53.366;6.636;2023-08-08T11:16:52;9.23;;;1.83;;
52940;SDS011;62001;53.366;6.636;2023-08-08T11:19:19;7.72;;;1.70;;
52940;SDS011;62001;53.366;6.636;2023-08-08T11:21:45;7.22;;;1.70;;
52940;SDS011;62001;53.366;6.636;2023-08-08T11:24:13;10.05;;;1.73;;
52940;SDS011;62001;53.366;6.636;2023-08-08T11:26:40;7.88;;;1.90;;
52940;SDS011;62001;53.366;6.636;2023-08-08T11:29:06;10.95;;;2.05;;
52940;SDS011;62001;53.366;6.636;2023-08-08T11:31:35;8.70;;;2.20;;
52940;SDS011;62001;53.366;6.636;2023-08-08T11:34:02;7.53;;;1.67;;
52940;SDS011;62001;53.366;6.636;2023-08-08T11:36:30;12.32;;;1.90;;
52940;SDS011;62001;53.366;6.636;2023-08-08T11:38:58;6.18;;;1.90;;
52940;SDS011;62001;53.366;6.636;2023-08-08T11:41:30;9.80;;;1.77;;
52940;SDS011;62001;53.366;6.636;2023-08-08T11:43:57;7.18;;;1.63;;
52940;SDS011;62001;53.366;6.636;2023-08-08T11:46:24;8.45;;;1.77;;
52940;SDS011;62001;53.366;6.636;2023-08-08T11:48:51;8.48;;;1.50;;
52940;SDS011;62001;53.366;6.636;2023-08-08T11:51:17;6.40;;;1.70;;
52940;SDS011;62001;53.366;6.636;2023-08-08T11:53:49;6.47;;;1.77;;
52940;SDS011;62001;53.366;6.636;2023-08-08T11:56:16;9.52;;;2.05;;
52940;SDS011;62001;53.366;6.636;2023-08-08T11:58:44;9.90;;;1.88;;
52940;SDS011;62001;53.366;6.636;2023-08-08T12:01:10;9.07;;;2.30;;
52940;SDS011;62001;53.366;6.636;2023-08-08T12:03:39;5.90;;;1.63;;
52940;SDS011;62001;53.366;6.636;2023-08-08T12:06:14;9.57;;;1.80;;
52940;SDS011;62001;53.366;6.636;2023-08-08T12:08:43;9.88;;;2.17;;
52940;SDS011;62001;53.366;6.636;2023-08-08T12:11:10;10.05;;;2.17;;
52940;SDS011;62001;53.366;6.636;2023-08-08T12:13:38;11.15;;;2.20;;
52940;SDS011;62001;53.366;6.636;2023-08-08T12:16:06;7.40;;;1.60;;
52940;SDS011;62001;53.366;6.636;2023-08-08T12:18:34;8.98;;;1.70;;
52940;SDS011;62001;53.366;6.636;2023-08-08T12:21:02;10.40;;;1.80;;
52940;SDS011;62001;53.366;6.636;2023-08-08T12:23:28;7.68;;;1.85;;
52940;SDS011;62001;53.366;6.636;2023-08-08T12:25:54;8.75;;;1.80;;
52940;SDS011;62001;53.366;6.636;2023-08-08T12:28:22;8.30;;;1.67;;
52940;SDS011;62001;53.366;6.636;2023-08-08T12:30:48;5.78;;;1.33;;
52940;SDS011;62001;53.366;6.636;2023-08-08T12:33:13;7.93;;;1.75;;
52940;SDS011;62001;53.366;6.636;2023-08-08T12:35:39;10.65;;;1.70;;
52940;SDS011;62001;53.366;6.636;2023-08-08T12:38:05;5.43;;;1.50;;
52940;SDS011;62001;53.366;6.636;2023-08-08T12:40:31;7.88;;;1.80;;
52940;SDS011;62001;53.366;6.636;2023-08-08T12:42:57;8.60;;;1.88;;
52940;SDS011;62001;53.366;6.636;2023-08-08T12:45:23;5.53;;;1.48;;
52940;SDS011;62001;53.366;6.636;2023-08-08T12:47:48;8.20;;;1.90;;
52940;SDS011;62001;53.366;6.636;2023-08-08T12:50:15;7.32;;;1.83;;
52940;SDS011;62001;53.366;6.636;2023-08-08T12:52:40;7.95;;;1.60;;
52940;SDS011;62001;53.366;6.636;2023-08-08T12:55:06;7.13;;;1.67;;
52940;SDS011;62001;53.366;6.636;2023-08-08T12:57:34;11.43;;;2.03;;
52940;SDS011;62001;53.366;6.636;2023-08-08T13:00:00;9.27;;;1.65;;
52940;SDS011;62001;53.366;6.636;2023-08-08T13:02:25;8.60;;;1.67;;
52940;SDS011;62001;53.366;6.636;2023-08-08T13:04:51;8.38;;;1.73;;
52940;SDS011;62001;53.366;6.636;2023-08-08T13:07:17;9.50;;;2.00;;
52940;SDS011;62001;53.366;6.636;2023-08-08T13:09:43;10.65;;;1.90;;
52940;SDS011;62001;53.366;6.636;2023-08-08T13:12:10;10.45;;;2.17;;
52940;SDS011;62001;53.366;6.636;2023-08-08T13:14:36;10.50;;;2.33;;
52940;SDS011;62001;53.366;6.636;2023-08-08T13:17:02;11.27;;;2.33;;
52940;SDS011;62001;53.366;6.636;2023-08-08T13:19:28;7.75;;;1.92;;
52940;SDS011;62001;53.366;6.636;2023-08-08T13:21:54;9.88;;;1.83;;
52940;SDS011;62001;53.366;6.636;2023-08-08T13:24:20;7.57;;;1.75;;
52940;SDS011;62001;53.366;6.636;2023-08-08T13:26:48;8.77;;;1.80;;
52940;SDS011;62001;53.366;6.636;2023-08-08T13:29:14;10.43;;;2.00;;
52940;SDS011;62001;53.366;6.636;2023-08-08T13:31:40;10.85;;;1.98;;
52940;SDS011;62001;53.366;6.636;2023-08-08T13:34:06;15.80;;;2.45;;
52940;SDS011;62001;53.366;6.636;2023-08-08T13:36:32;9.32;;;2.03;;
52940;SDS011;62001;53.366;6.636;2023-08-08T13:38:58;9.80;;;2.03;;
52940;SDS011;62001;53.366;6.636;2023-08-08T13:41:25;11.13;;;2.20;;
52940;SDS011;62001;53.366;6.636;2023-08-08T13:43:51;11.52;;;2.60;;
52940;SDS011;62001;53.366;6.636;2023-08-08T13:46:16;9.13;;;1.73;;
52940;SDS011;62001;53.366;6.636;2023-08-08T13:48:42;7.55;;;1.83;;
52940;SDS011;62001;53.366;6.636;2023-08-08T13:51:08;9.73;;;1.85;;
52940;SDS011;62001;53.366;6.636;2023-08-08T13:53:34;11.32;;;1.95;;
52940;SDS011;62001;53.366;6.636;2023-08-08T13:56:00;9.27;;;2.20;;
52940;SDS011;62001;53.366;6.636;2023-08-08T13:58:26;9.93;;;2.08;;
52940;SDS011;62001;53.366;6.636;2023-08-08T14:00:52;9.82;;;1.95;;
52940;SDS011;62001;53.366;6.636;2023-08-08T14:03:18;6.20;;;1.60;;
52940;SDS011;62001;53.366;6.636;2023-08-08T14:05:44;6.55;;;1.30;;
52940;SDS011;62001;53.366;6.636;2023-08-08T14:08:10;8.57;;;1.75;;
52940;SDS011;62001;53.366;6.636;2023-08-08T14:10:36;7.78;;;1.60;;
52940;SDS011;62001;53.366;6.636;2023-08-08T14:13:02;7.32;;;1.92;;
52940;SDS011;62001;53.366;6.636;2023-08-08T14:15:28;8.98;;;1.98;;
52940;SDS011;62001;53.366;6.636;2023-08-08T14:17:54;8.52;;;1.60;;
52940;SDS011;62001;53.366;6.636;2023-08-08T14:20:20;7.45;;;1.55;;
52940;SDS011;62001;53.366;6.636;2023-08-08T14:22:46;8.50;;;1.60;;
52940;SDS011;62001;53.366;6.636;2023-08-08T14:25:14;7.07;;;1.77;;
52940;SDS011;62001;53.366;6.636;2023-08-08T14:27:40;11.02;;;1.98;;
52940;SDS011;62001;53.366;6.636;2023-08-08T14:30:06;6.90;;;1.77;;
52940;SDS011;62001;53.366;6.636;2023-08-08T14:32:32;8.85;;;1.90;;
52940;SDS011;62001;53.366;6.636;2023-08-08T14:34:58;8.00;;;1.80;;
52940;SDS011;62001;53.366;6.636;2023-08-08T14:37:24;11.70;;;2.00;;
52940;SDS011;62001;53.366;6.636;2023-08-08T14:39:50;13.50;;;1.90;;
52940;SDS011;62001;53.366;6.636;2023-08-08T14:42:16;16.27;;;1.90;;
52940;SDS011;62001;53.366;6.636;2023-08-08T14:44:42;8.82;;;1.58;;
52940;SDS011;62001;53.366;6.636;2023-08-08T14:47:08;7.65;;;1.63;;
52940;SDS011;62001;53.366;6.636;2023-08-08T14:49:34;4.85;;;1.30;;
52940;SDS011;62001;53.366;6.636;2023-08-08T14:52:00;8.98;;;1.70;;